^^
Grace C. Lehan Memorial Weather Station Historical Data
Daily Summary for February 11, 2021 Units:  Metric    English   Both
Daily Weekly Monthly Yearly
  High: Low: Average:
Temperature: 26.2 °C 12.9 °C 18.7 °C
Dew Point: 13.8 °C 8.6 °C 10.1 °C
Humidity: 86% 33% 61%
Wind Speed: 1.9km/h 0km/h 0.2km/h
Wind Gust: 16.1km/h - -
Wind- - SE
Pressure: 1018.5 hPa 1011.1 hPa -
Precipitation: 0 mm    
 
 
Tabular Data for February 11, 2021
Time Temperature Dew Point Pressure Wind Wind Speed Wind Gust Humidity Rainfall Rate (Hourly) solar
00:09 15.7 °C 10.3 °C 1018.5 hPa Calm   3.2 km/h 70.2% 0 mm 0 W/m2
00:14 15.7 °C 10.4 °C 1018.5 hPa Calm   3.2 km/h 71% 0 mm 0 W/m2
00:19 15.6 °C 10.3 °C 1018.5 hPa Calm   3.2 km/h 71% 0 mm 0 W/m2
00:24 15.6 °C 10.3 °C 1018.5 hPa Calm   3.2 km/h 71% 0 mm 0 W/m2
00:29 15.5 °C 10.3 °C 1018.5 hPa Calm   3.2 km/h 71.4% 0 mm 0 W/m2
00:34 15.4 °C 10.4 °C 1018.5 hPa Calm   3.2 km/h 72% 0 mm 0 W/m2
00:39 15.4 °C 10.3 °C 1018.5 hPa Calm     72% 0 mm 0 W/m2
00:44 15.3 °C 10.3 °C 1018.5 hPa Calm     72.2% 0 mm 0 W/m2
00:49 15.3 °C 10.4 °C 1018.5 hPa Calm     73% 0 mm 0 W/m2
00:54 15.2 °C 10.4 °C 1018.2 hPa Calm     73.1% 0 mm 0 W/m2
00:59 15.2 °C 10.5 °C 1018.2 hPa Calm     73.8% 0 mm 0 W/m2
01:04 15.1 °C 10.5 °C 1018.2 hPa Calm     74% 0 mm 0 W/m2
01:09 15.1 °C 10.4 °C 1018.2 hPa Calm     74% 0 mm 0 W/m2
01:14 15 °C 10.6 °C 1018.2 hPa Calm     74.7% 0 mm 0 W/m2
01:19 14.9 °C 10.4 °C 1018.2 hPa Calm     74.3% 0 mm 0 W/m2
01:24 14.9 °C 10.5 °C 1018.2 hPa Calm     75% 0 mm 0 W/m2
01:29 14.8 °C 10.4 °C 1018.2 hPa Calm     75% 0 mm 0 W/m2
01:34 14.8 °C 10.4 °C 1018.2 hPa Calm     75% 0 mm 0 W/m2
01:39 14.7 °C 10.3 °C 1018.2 hPa Calm     75% 0 mm 0 W/m2
01:44 14.7 °C 10.4 °C 1018.2 hPa Calm     75.4% 0 mm 0 W/m2
01:49 14.6 °C 10.4 °C 1018.2 hPa Calm     76% 0 mm 0 W/m2
01:54 14.6 °C 10.4 °C 1018.2 hPa Calm     76% 0 mm 0 W/m2
01:59 14.5 °C 10.4 °C 1018.2 hPa Calm     76.5% 0 mm 0 W/m2
02:04 14.4 °C 10.4 °C 1017.8 hPa Calm     77% 0 mm 0 W/m2
02:09 14.4 °C 10.4 °C 1017.8 hPa Calm     77% 0 mm 0 W/m2
02:14 14.3 °C 10.3 °C 1017.8 hPa Calm     77% 0 mm 0 W/m2
02:19 14.3 °C 10.3 °C 1017.8 hPa Calm     77.2% 0 mm 0 W/m2
02:24 14.2 °C 10.4 °C 1017.8 hPa Calm     78% 0 mm 0 W/m2
02:29 14.2 °C 10.4 °C 1017.8 hPa Calm     78% 0 mm 0 W/m2
02:34 14.2 °C 10.4 °C 1017.8 hPa Calm     78.2% 0 mm 0 W/m2
02:39 14.1 °C 10.5 °C 1017.8 hPa Calm     79% 0 mm 0 W/m2
02:44 14.1 °C 10.6 °C 1017.8 hPa Calm     79.8% 0 mm 0 W/m2
02:49 14.1 °C 10.8 °C 1017.8 hPa Calm     80.6% 0 mm 0 W/m2
02:54 14.1 °C 10.8 °C 1017.8 hPa Calm     81% 0 mm 0 W/m2
02:59 14.1 °C 10.8 °C 1017.8 hPa Calm     81% 0 mm 0 W/m2
03:04 14.1 °C 10.8 °C 1017.8 hPa Calm     81% 0 mm 0 W/m2
03:09 14.1 °C 10.8 °C 1017.8 hPa Calm     81% 0 mm 0 W/m2
03:14 14.1 °C 10.9 °C 1017.8 hPa Calm     81% 0 mm 0 W/m2
03:19 14.1 °C 10.7 °C 1017.5 hPa Calm     80% 0 mm 0 W/m2
03:24 14.1 °C 10.6 °C 1017.5 hPa Calm     79% 0 mm 0 W/m2
03:29 14.2 °C 10.6 °C 1017.5 hPa Calm     79% 0 mm 0 W/m2
03:34 14.2 °C 10.6 °C 1017.5 hPa Calm     79% 0 mm 0 W/m2
03:39 14.2 °C 10.8 °C 1017.5 hPa Calm     79.8% 0 mm 0 W/m2
03:44 14.3 °C 10.8 °C 1017.5 hPa Calm     79.9% 0 mm 0 W/m2
03:49 14.3 °C 10.7 °C 1017.5 hPa Calm     79% 0 mm 0 W/m2
03:54 14.3 °C 10.7 °C 1017.5 hPa Calm     79% 0 mm 0 W/m2
03:59 14.3 °C 10.7 °C 1017.5 hPa Calm     79% 0 mm 0 W/m2
04:00 14.3 °C 10.7 °C 1017.2 hPa Calm     79% 0 mm 0 W/m2
04:09 14.2 °C 10.6 °C 1017.5 hPa Calm     79% 0 mm 0 W/m2
04:14 14.2 °C 10.6 °C 1017.5 hPa Calm     79% 0 mm 0 W/m2
04:19 14.1 °C 10.5 °C 1017.8 hPa Calm     79% 0 mm 0 W/m2
04:24 14 °C 10.4 °C 1017.8 hPa Calm     79% 0 mm 0 W/m2
04:29 13.9 °C 10.4 °C 1017.8 hPa Calm     79% 0 mm 0 W/m2
04:34 13.9 °C 10.3 °C 1017.8 hPa Calm     79% 0 mm 0 W/m2
04:39 13.8 °C 10.2 °C 1017.8 hPa Calm     79% 0 mm 0 W/m2
04:44 13.7 °C 10.2 °C 1017.8 hPa Calm     79% 0 mm 0 W/m2
04:49 13.7 °C 10.3 °C 1017.8 hPa Calm     80% 0 mm 0 W/m2
04:54 13.6 °C 10.2 °C 1017.8 hPa Calm     80% 0 mm 0 W/m2
04:59 13.5 °C 10.2 °C 1017.8 hPa Calm     80% 0 mm 0 W/m2
05:04 13.4 °C 10.2 °C 1017.8 hPa Calm     80.4% 0 mm 0 W/m2
05:09 13.4 °C 10.2 °C 1017.8 hPa Calm     81% 0 mm 0 W/m2
05:14 13.3 °C 10.2 °C 1017.8 hPa Calm     81% 0 mm 0 W/m2
05:19 13.3 °C 10.2 °C 1017.8 hPa Calm     81.5% 0 mm 0 W/m2
05:24 13.2 °C 10.2 °C 1017.8 hPa Calm     82% 0 mm 0 W/m2
05:29 13.2 °C 10.2 °C 1017.5 hPa Calm     82.4% 0 mm 0 W/m2
05:34 13.1 °C 10.3 °C 1017.5 hPa Calm     83% 0 mm 5 W/m2
05:39 13.1 °C 10.2 °C 1017.5 hPa Calm     83% 0 mm 7 W/m2
05:44 13.1 °C 10.3 °C 1017.5 hPa Calm     83.2% 0 mm 11 W/m2
05:49 13 °C 10.3 °C 1017.5 hPa Calm     84% 0 mm 14 W/m2
05:54 12.9 °C 10.3 °C 1017.5 hPa Calm     84% 0 mm 16 W/m2
05:59 12.9 °C 10.4 °C 1017.2 hPa Calm     84.3% 0 mm 18 W/m2
06:04 12.9 °C 10.5 °C 1017.2 hPa Calm     85% 0 mm 19 W/m2
06:09 13 °C 10.6 °C 1017.2 hPa Calm     85.1% 0 mm 21 W/m2
06:14 13.1 °C 10.8 °C 1017.2 hPa Calm     86% 0 mm 23 W/m2
06:19 13.1 °C 10.8 °C 1017.5 hPa Calm     86% 0 mm 25 W/m2
06:24 13.2 °C 10.9 °C 1017.5 hPa Calm     86% 0 mm 30 W/m2
06:29 13.3 °C 11.1 °C 1017.5 hPa Calm     86% 0 mm 39 W/m2
06:34 13.5 °C 11.2 °C 1017.2 hPa Calm     86% 0 mm 47 W/m2
06:39 13.7 °C 11.3 °C 1017.2 hPa Calm     85.6% 0 mm 53 W/m2
06:44 13.9 °C 11.3 °C 1017.2 hPa Calm     84.2% 0 mm 63 W/m2
06:49 14.3 °C 11.3 °C 1017.2 hPa Calm     82.2% 0 mm 69 W/m2
06:50 14.6 °C 11.4 °C 1017.5 hPa Calm     81% 0 mm 69 W/m2
07:00 15.6 °C 11.2 °C 1017.2 hPa Calm   3.2 km/h 75% 0 mm 60 W/m2
07:30 17.7 °C 10.3 °C 1017.2 hPa Calm   11.3 km/h 62% 0 mm 138 W/m2
08:04 18.9 °C 9.1 °C 1017.2 hPa NE 1.4 km/h 11.3 km/h 52.7% 0 mm 457 W/m2
08:09 19.1 °C 9 °C 1016.8 hPa Calm   6.4 km/h 52% 0 mm 476 W/m2
08:14 19.1 °C 8.8 °C 1016.8 hPa Calm   6.4 km/h 51.3% 0 mm 490 W/m2
08:19 19.2 °C 9.6 °C 1016.8 hPa Calm   6.4 km/h 53.6% 0 mm 512 W/m2
08:24 19.4 °C 9.6 °C 1016.8 hPa Calm   6.4 km/h 53% 0 mm 531 W/m2
08:29 19.7 °C 9.4 °C 1016.5 hPa Calm   6.4 km/h 51.5% 0 mm 547 W/m2
08:34 19.8 °C 9 °C 1016.5 hPa Calm   6.4 km/h 49.7% 0 mm 561 W/m2
08:39 20.1 °C 9.2 °C 1016.5 hPa NE 1.3 km/h 6.4 km/h 49.5% 0 mm 577 W/m2
08:44 20.3 °C 8.7 °C 1016.5 hPa Calm   6.4 km/h 47.3% 0 mm 592 W/m2
08:49 20.4 °C 9.1 °C 1016.5 hPa NE 1 km/h 6.4 km/h 48.2% 0 mm 605 W/m2
08:54 20.8 °C 8.9 °C 1016.5 hPa NE 0.8 km/h 6.4 km/h 46.7% 0 mm 619 W/m2
08:59 21.1 °C 9.1 °C 1016.5 hPa NE 0.2 km/h 6.4 km/h 46.2% 0 mm 633 W/m2
09:04 21.1 °C 8.7 °C 1016.5 hPa Calm   6.4 km/h 44.8% 0 mm 642 W/m2
09:09 21.1 °C 8.8 °C 1016.5 hPa Calm     45.3% 0 mm 657 W/m2
09:14 21.1 °C 9.3 °C 1016.5 hPa Calm     47% 0 mm 671 W/m2
09:19 21.1 °C 9.4 °C 1016.5 hPa Calm     47% 0 mm 689 W/m2
09:24 21.2 °C 9.1 °C 1016.5 hPa Calm     46.1% 0 mm 703 W/m2
09:29 21.2 °C 8.7 °C 1016.1 hPa Calm   1.6 km/h 44.5% 0 mm 728 W/m2
09:34 21.3 °C 8.9 °C 1016.1 hPa Calm   1.6 km/h 45% 0 mm 729 W/m2
09:39 21.6 °C 9.2 °C 1016.1 hPa Calm     45.3% 0 mm 745 W/m2
09:44 21.7 °C 8.8 °C 1016.1 hPa Calm     43.9% 0 mm 756 W/m2
09:49 21.7 °C 8.8 °C 1016.1 hPa NE 1 km/h 4.8 km/h 43.8% 0 mm 768 W/m2
09:54 22 °C 8.7 °C 1016.1 hPa NE 0.8 km/h 6.4 km/h 42.4% 0 mm 777 W/m2
09:59 22.2 °C 9.1 °C 1016.1 hPa Calm   6.4 km/h 43.1% 0 mm 789 W/m2
10:04 22.3 °C 9.1 °C 1015.8 hPa NE 0.8 km/h 6.4 km/h 42.9% 0 mm 796 W/m2
10:09 22.6 °C 8.8 °C 1015.8 hPa NE 0.6 km/h 6.4 km/h 41.4% 0 mm 816 W/m2
10:14 22.9 °C 9.6 °C 1015.8 hPa NE 1 km/h 6.4 km/h 42.8% 0 mm 826 W/m2
10:19 23.1 °C 9.6 °C 1015.8 hPa Calm   6.4 km/h 42.4% 0 mm 840 W/m2
10:24 23.1 °C 8.7 °C 1015.8 hPa NE 0.2 km/h 6.4 km/h 40% 0 mm 847 W/m2
10:29 22.9 °C 8.6 °C 1015.8 hPa Calm   6.4 km/h 39.7% 0 mm 842 W/m2
10:34 23 °C 9.2 °C 1015.8 hPa Calm   6.4 km/h 41.3% 0 mm 824 W/m2
10:39 22.9 °C 9.2 °C 1015.8 hPa Calm   1.6 km/h 41.4% 0 mm 868 W/m2
10:44 23 °C 9.5 °C 1015.5 hPa Calm   1.6 km/h 42.3% 0 mm 875 W/m2
10:47 22.9 °C 9.1 °C 1015.5 hPa NE 0.3 km/h 4.8 km/h 41.3% 0 mm 905 W/m2
11:00 23.1 °C 9.5 °C 1015.1 hPa Calm   8 km/h 42% 0 mm 852 W/m2
11:30 23.8 °C 9.1 °C 1015.5 hPa Calm   4.8 km/h 39% 0 mm 861 W/m2
12:04 24.7 °C 10.2 °C 1015.5 hPa ENE 0.2 km/h 4.8 km/h 40.1% 0 mm 967 W/m2
12:09 24.8 °C 10 °C 1014.8 hPa ENE 0.8 km/h 4.8 km/h 39.3% 0 mm 967 W/m2
12:14 24.8 °C 10.6 °C 1014.8 hPa Calm   4.8 km/h 41% 0 mm 977 W/m2
12:19 24.7 °C 10.6 °C 1014.8 hPa ENE 0.5 km/h 4.8 km/h 41.1% 0 mm 974 W/m2
12:24 24.8 °C 10.9 °C 1014.4 hPa ENE 0.6 km/h 4.8 km/h 41.6% 0 mm 976 W/m2
12:29 25.1 °C 11.3 °C 1014.4 hPa NE 0.6 km/h 6.4 km/h 42% 0 mm 981 W/m2
12:34 25.3 °C 10.7 °C 1014.4 hPa NE 0.2 km/h 6.4 km/h 39.9% 0 mm 983 W/m2
12:39 25.4 °C 10.4 °C 1014.4 hPa NNE 1.4 km/h 8 km/h 38.9% 0 mm 972 W/m2
12:44 25.3 °C 9.7 °C 1014.1 hPa WNW 0.3 km/h 8 km/h 37.3% 0 mm 990 W/m2
12:49 25.2 °C 9.6 °C 1014.1 hPa West 1.1 km/h 8 km/h 37.5% 0 mm 993 W/m2
13:00 24.9 °C 10.1 °C 1013.8 hPa Calm   8 km/h 39% 0 mm 973 W/m2
13:30 26.2 °C 10.4 °C 1013.8 hPa WSW 1.6 km/h 9.7 km/h 37% 0 mm 987 W/m2
14:00 25.7 °C 9.1 °C 1013.1 hPa Calm   6.4 km/h 35% 0 mm 902 W/m2
14:30 25.8 °C 9.2 °C 1012.8 hPa SW 1.6 km/h 6.4 km/h 35% 0 mm 862 W/m2
15:00 26.2 °C 8.7 °C 1012.8 hPa South 1.6 km/h 9.7 km/h 33% 0 mm 867 W/m2
15:30 26.1 °C 8.6 °C 1012.8 hPa South 1.6 km/h 8 km/h 33% 0 mm 830 W/m2
16:04 25.7 °C 9.3 °C 1012.4 hPa SSE 1 km/h 3.2 km/h 35.4% 0 mm 719 W/m2
16:09 25.8 °C 9.5 °C 1012.4 hPa SSE 0.6 km/h 4.8 km/h 35.8% 0 mm 719 W/m2
16:14 25.8 °C 9.1 °C 1012.4 hPa SSE 0.5 km/h 4.8 km/h 34.7% 0 mm 316 W/m2
16:19 25.7 °C 8.6 °C 1012.4 hPa SSE 0.6 km/h 4.8 km/h 33.8% 0 mm 287 W/m2
16:24 25.4 °C 9.1 °C 1012.4 hPa SSE 0.5 km/h 6.4 km/h 35.7% 0 mm 253 W/m2
16:29 25.3 °C 9.6 °C 1012.4 hPa SSE 0.3 km/h 6.4 km/h 37% 0 mm 251 W/m2
16:34 25.3 °C 9.4 °C 1012.4 hPa SSW 1.1 km/h 9.7 km/h 36.8% 0 mm 236 W/m2
16:39 25.2 °C 9.8 °C 1012.4 hPa WSW 0.5 km/h 9.7 km/h 37.7% 0 mm 236 W/m2
16:44 25.2 °C 9.9 °C 1012.1 hPa SW 0.6 km/h 9.7 km/h 38.1% 0 mm 248 W/m2
16:49 25.3 °C 9.7 °C 1012.1 hPa WSW 0.3 km/h 9.7 km/h 37.5% 0 mm 178 W/m2
16:54 25.2 °C 9.8 °C 1012.1 hPa SW 1.9 km/h 16.1 km/h 37.6% 0 mm 153 W/m2
16:59 25.2 °C 9.9 °C 1012.1 hPa WSW 1.1 km/h 16.1 km/h 37.9% 0 mm 162 W/m2
17:04 25.2 °C 9.2 °C 1012.1 hPa SSE 1.1 km/h 16.1 km/h 36.4% 0 mm 165 W/m2
17:09 25 °C 9.3 °C 1012.1 hPa SSE 0.2 km/h 6.4 km/h 37.1% 0 mm 153 W/m2
17:14 24.9 °C 9.6 °C 1012.1 hPa SSW 0.8 km/h 12.9 km/h 37.9% 0 mm 144 W/m2
17:19 24.8 °C 9.4 °C 1012.1 hPa WSW 0.3 km/h 12.9 km/h 37.7% 0 mm 135 W/m2
17:24 24.6 °C 9.5 °C 1011.7 hPa Calm   12.9 km/h 38.3% 0 mm 128 W/m2
17:29 24.4 °C 10.2 °C 1011.7 hPa WSW 0.2 km/h 12.9 km/h 40.6% 0 mm 142 W/m2
17:34 24.3 °C 10 °C 1011.7 hPa Calm   12.9 km/h 40.6% 0 mm 144 W/m2
17:39 24.1 °C 10.2 °C 1011.7 hPa SW 0.3 km/h 4.8 km/h 41.5% 0 mm 114 W/m2
17:43 23.9 °C 9.5 °C 1011.7 hPa South 0.6 km/h 4.8 km/h 40% 0 mm 100 W/m2
18:00 23.3 °C 10.1 °C 1011.4 hPa Calm   4.8 km/h 43% 0 mm 101 W/m2
18:30 22.8 °C 10.2 °C 1011.1 hPa Calm   6.4 km/h 45% 0 mm 74 W/m2
19:00 22.2 °C 10.7 °C 1011.4 hPa Calm   6.4 km/h 48% 0 mm 62 W/m2
19:30 21.7 °C 10.8 °C 1011.4 hPa Calm   6.4 km/h 50% 0 mm 40 W/m2
20:04 20.8 °C 10.2 °C 1011.4 hPa South 1.4 km/h 6.4 km/h 50.7% 0 mm 40 W/m2
20:09 20.7 °C 10.1 °C 1011.4 hPa South 0.5 km/h 4.8 km/h 50.8% 0 mm 5 W/m2
20:14 20.6 °C 9.9 °C 1011.4 hPa South 0.2 km/h 4.8 km/h 50.5% 0 mm 5 W/m2
20:19 20.4 °C 9.5 °C 1011.4 hPa South 0.2 km/h 4.8 km/h 49.4% 0 mm 0 W/m2
20:24 20.3 °C 9.4 °C 1011.7 hPa South 0.2 km/h 4.8 km/h 49.4% 0 mm 0 W/m2
20:29 20.2 °C 9.6 °C 1011.4 hPa Calm   4.8 km/h 50.4% 0 mm 0 W/m2
20:34 20.1 °C 9.7 °C 1011.4 hPa South 0.2 km/h 4.8 km/h 51% 0 mm 0 W/m2
20:39 20.1 °C 9.8 °C 1011.4 hPa Calm   3.2 km/h 51.9% 0 mm 0 W/m2
20:43 19.9 °C 9.9 °C 1011.4 hPa Calm   3.2 km/h 52.5% 0 mm 0 W/m2
21:00 19.7 °C 11.2 °C 1011.1 hPa Calm   3.2 km/h 58% 0 mm 0 W/m2
21:30 19.2 °C 12.7 °C 1011.7 hPa Calm   3.2 km/h 66% 0 mm 0 W/m2
22:00 18.8 °C 13.6 °C 1011.7 hPa Calm   3.2 km/h 72% 0 mm 0 W/m2
22:30 18.3 °C 13.6 °C 1012.1 hPa Calm     74% 0 mm 0 W/m2
23:00 18.1 °C 13.8 °C 1011.7 hPa Calm     76% 0 mm 0 W/m2
23:30 17.9 °C 13.8 °C 1011.7 hPa Calm     77% 0 mm 0 W/m2
Hartford County Weather
Compliments of Weather Underground - 2 mb